sensor_id;sensor_type;location;lat;lon;timestamp;pressure;altitude;pressure_sealevel;temperature;humidity
72120;BME280;59993;53.052;18.576;2022-08-19T00:01:28;100384.56;;;20.45;95.41
72120;BME280;59993;53.052;18.576;2022-08-19T00:03:55;100364.50;;;20.56;94.95
72120;BME280;59993;53.052;18.576;2022-08-19T00:06:21;100374.91;;;20.59;93.81
72120;BME280;59993;53.052;18.576;2022-08-19T00:08:46;100372.75;;;20.54;95.35
72120;BME280;59993;53.052;18.576;2022-08-19T00:11:12;100360.19;;;20.47;94.87
72120;BME280;59993;53.052;18.576;2022-08-19T00:13:38;100378.41;;;20.36;95.51
72120;BME280;59993;53.052;18.576;2022-08-19T00:16:04;100370.44;;;20.20;96.59
72120;BME280;59993;53.052;18.576;2022-08-19T00:18:31;100372.13;;;20.21;96.49
72120;BME280;59993;53.052;18.576;2022-08-19T00:20:57;100374.81;;;20.21;97.05
72120;BME280;59993;53.052;18.576;2022-08-19T00:23:24;100386.59;;;20.12;97.22
72120;BME280;59993;53.052;18.576;2022-08-19T00:25:50;100382.09;;;20.12;97.01
72120;BME280;59993;53.052;18.576;2022-08-19T00:28:16;100393.03;;;20.11;97.85
72120;BME280;59993;53.052;18.576;2022-08-19T00:30:41;100387.66;;;20.02;97.41
72120;BME280;59993;53.052;18.576;2022-08-19T00:33:06;100376.44;;;19.99;97.13
72120;BME280;59993;53.052;18.576;2022-08-19T00:35:33;100370.88;;;20.00;97.02
72120;BME280;59993;53.052;18.576;2022-08-19T00:37:59;100376.94;;;19.94;98.09
72120;BME280;59993;53.052;18.576;2022-08-19T00:40:25;100385.38;;;19.91;98.13
72120;BME280;59993;53.052;18.576;2022-08-19T00:42:51;100376.31;;;19.92;97.16
72120;BME280;59993;53.052;18.576;2022-08-19T00:45:25;100369.91;;;19.77;98.71
72120;BME280;59993;53.052;18.576;2022-08-19T00:47:51;100371.63;;;19.78;99.48
72120;BME280;59993;53.052;18.576;2022-08-19T00:50:18;100368.78;;;19.79;98.89
72120;BME280;59993;53.052;18.576;2022-08-19T00:52:47;100379.00;;;19.76;99.31
72120;BME280;59993;53.052;18.576;2022-08-19T00:55:24;100371.13;;;19.74;98.91
72120;BME280;59993;53.052;18.576;2022-08-19T00:58:04;100371.94;;;19.75;99.72
72120;BME280;59993;53.052;18.576;2022-08-19T01:00:33;100381.03;;;19.74;99.01
72120;BME280;59993;53.052;18.576;2022-08-19T01:03:14;100377.69;;;19.71;98.83
72120;BME280;59993;53.052;18.576;2022-08-19T01:05:41;100381.53;;;19.69;100.00
72120;BME280;59993;53.052;18.576;2022-08-19T01:08:08;100376.00;;;19.79;99.65
72120;BME280;59993;53.052;18.576;2022-08-19T01:10:40;100382.75;;;19.66;99.92
72120;BME280;59993;53.052;18.576;2022-08-19T01:13:07;100382.72;;;19.75;99.40
72120;BME280;59993;53.052;18.576;2022-08-19T01:15:40;100382.94;;;19.65;99.81
72120;BME280;59993;53.052;18.576;2022-08-19T01:18:09;100378.06;;;19.60;100.00
72120;BME280;59993;53.052;18.576;2022-08-19T01:20:36;100374.69;;;19.66;100.00
72120;BME280;59993;53.052;18.576;2022-08-19T01:23:02;100376.03;;;19.62;100.00
72120;BME280;59993;53.052;18.576;2022-08-19T01:25:35;100366.97;;;19.55;100.00
72120;BME280;59993;53.052;18.576;2022-08-19T01:28:03;100366.47;;;19.51;100.00
72120;BME280;59993;53.052;18.576;2022-08-19T01:30:32;100364.63;;;19.52;100.00
72120;BME280;59993;53.052;18.576;2022-08-19T01:32:58;100363.09;;;19.49;100.00
72120;BME280;59993;53.052;18.576;2022-08-19T01:35:31;100362.50;;;19.39;100.00
72120;BME280;59993;53.052;18.576;2022-08-19T01:38:04;100361.94;;;19.52;100.00
72120;BME280;59993;53.052;18.576;2022-08-19T01:40:35;100348.47;;;19.60;100.00
72120;BME280;59993;53.052;18.576;2022-08-19T01:43:02;100354.34;;;19.64;99.40
72120;BME280;59993;53.052;18.576;2022-08-19T01:45:30;100351.53;;;19.49;100.00
72120;BME280;59993;53.052;18.576;2022-08-19T01:47:57;100348.66;;;19.50;100.00
72120;BME280;59993;53.052;18.576;2022-08-19T01:50:23;100346.13;;;19.57;100.00
72120;BME280;59993;53.052;18.576;2022-08-19T01:52:49;100342.06;;;19.69;99.26
72120;BME280;59993;53.052;18.576;2022-08-19T01:55:17;100347.50;;;19.53;100.00
72120;BME280;59993;53.052;18.576;2022-08-19T01:57:47;100345.38;;;19.88;98.84
72120;BME280;59993;53.052;18.576;2022-08-19T02:00:16;100342.03;;;19.86;98.68
72120;BME280;59993;53.052;18.576;2022-08-19T02:02:44;100347.28;;;20.11;97.17
72120;BME280;59993;53.052;18.576;2022-08-19T02:05:11;100348.44;;;20.16;97.29
72120;BME280;59993;53.052;18.576;2022-08-19T02:07:38;100339.66;;;20.14;96.63
72120;BME280;59993;53.052;18.576;2022-08-19T02:10:06;100337.88;;;20.06;96.86
72120;BME280;59993;53.052;18.576;2022-08-19T02:12:32;100328.16;;;19.97;97.92
72120;BME280;59993;53.052;18.576;2022-08-19T02:14:59;100326.72;;;19.86;99.14
72120;BME280;59993;53.052;18.576;2022-08-19T02:17:26;100321.34;;;19.78;98.91
72120;BME280;59993;53.052;18.576;2022-08-19T02:19:54;100310.75;;;19.77;98.76
72120;BME280;59993;53.052;18.576;2022-08-19T02:22:19;100303.06;;;19.65;99.81
72120;BME280;59993;53.052;18.576;2022-08-19T02:24:46;100314.22;;;19.54;99.68
72120;BME280;59993;53.052;18.576;2022-08-19T02:27:13;100310.88;;;19.44;100.00
72120;BME280;59993;53.052;18.576;2022-08-19T02:29:39;100313.13;;;19.71;99.73
72120;BME280;59993;53.052;18.576;2022-08-19T02:32:04;100306.41;;;19.67;99.64
72120;BME280;59993;53.052;18.576;2022-08-19T02:34:30;100309.44;;;19.64;100.00
72120;BME280;59993;53.052;18.576;2022-08-19T02:36:55;100306.03;;;19.87;98.92
72120;BME280;59993;53.052;18.576;2022-08-19T02:39:21;100306.69;;;19.89;98.00
72120;BME280;59993;53.052;18.576;2022-08-19T02:41:46;100309.34;;;19.97;98.41
72120;BME280;59993;53.052;18.576;2022-08-19T02:44:12;100309.44;;;20.04;97.70
72120;BME280;59993;53.052;18.576;2022-08-19T02:46:37;100312.50;;;20.01;97.37
72120;BME280;59993;53.052;18.576;2022-08-19T02:49:05;100325.06;;;19.77;99.28
72120;BME280;59993;53.052;18.576;2022-08-19T02:51:36;100323.84;;;19.88;98.42
72120;BME280;59993;53.052;18.576;2022-08-19T02:54:03;100325.78;;;20.02;97.77
72120;BME280;59993;53.052;18.576;2022-08-19T02:56:30;100322.25;;;20.02;98.61
72120;BME280;59993;53.052;18.576;2022-08-19T02:58:57;100317.53;;;20.04;97.14
72120;BME280;59993;53.052;18.576;2022-08-19T03:01:27;100323.41;;;20.08;97.75
72120;BME280;59993;53.052;18.576;2022-08-19T03:03:53;100311.78;;;20.07;96.90
72120;BME280;59993;53.052;18.576;2022-08-19T03:06:19;100307.63;;;20.04;97.18
72120;BME280;59993;53.052;18.576;2022-08-19T03:08:46;100318.84;;;20.08;97.70
72120;BME280;59993;53.052;18.576;2022-08-19T03:11:16;100310.97;;;20.06;97.93
72120;BME280;59993;53.052;18.576;2022-08-19T03:13:41;100313.75;;;20.13;97.35
72120;BME280;59993;53.052;18.576;2022-08-19T03:16:08;100309.97;;;19.99;97.63
72120;BME280;59993;53.052;18.576;2022-08-19T03:18:34;100313.22;;;19.95;98.64
72120;BME280;59993;53.052;18.576;2022-08-19T03:21:00;100320.50;;;19.86;99.24
72120;BME280;59993;53.052;18.576;2022-08-19T03:23:25;100315.59;;;19.90;98.98
72120;BME280;59993;53.052;18.576;2022-08-19T03:25:52;100311.72;;;19.92;98.47
72120;BME280;59993;53.052;18.576;2022-08-19T03:28:19;100309.38;;;19.89;98.57
72120;BME280;59993;53.052;18.576;2022-08-19T03:31:00;100317.81;;;19.86;99.06
72120;BME280;59993;53.052;18.576;2022-08-19T03:33:27;100308.19;;;19.92;98.78
72120;BME280;59993;53.052;18.576;2022-08-19T03:36:04;100314.41;;;19.92;98.78
72120;BME280;59993;53.052;18.576;2022-08-19T03:38:31;100318.38;;;20.04;97.72
72120;BME280;59993;53.052;18.576;2022-08-19T03:40:57;100320.38;;;20.02;98.13
72120;BME280;59993;53.052;18.576;2022-08-19T03:43:23;100316.69;;;20.03;97.82
72120;BME280;59993;53.052;18.576;2022-08-19T03:46:02;100316.47;;;20.13;97.48
72120;BME280;59993;53.052;18.576;2022-08-19T03:48:30;100313.94;;;20.12;97.69
72120;BME280;59993;53.052;18.576;2022-08-19T03:50:56;100309.78;;;20.09;97.55
72120;BME280;59993;53.052;18.576;2022-08-19T03:53:29;100308.22;;;20.15;97.37
72120;BME280;59993;53.052;18.576;2022-08-19T03:55:55;100315.28;;;20.16;97.08
72120;BME280;59993;53.052;18.576;2022-08-19T03:58:22;100303.84;;;20.14;97.27
72120;BME280;59993;53.052;18.576;2022-08-19T04:00:48;100298.75;;;20.19;97.44
72120;BME280;59993;53.052;18.576;2022-08-19T04:03:17;100299.81;;;20.18;97.38
72120;BME280;59993;53.052;18.576;2022-08-19T04:05:44;100302.13;;;20.21;97.06
72120;BME280;59993;53.052;18.576;2022-08-19T04:08:10;100303.06;;;20.28;96.99
72120;BME280;59993;53.052;18.576;2022-08-19T04:10:36;100294.28;;;20.34;96.13
72120;BME280;59993;53.052;18.576;2022-08-19T04:13:03;100288.25;;;20.32;96.87
72120;BME280;59993;53.052;18.576;2022-08-19T04:15:31;100293.63;;;20.32;96.04
72120;BME280;59993;53.052;18.576;2022-08-19T04:18:01;100292.19;;;20.45;95.31
72120;BME280;59993;53.052;18.576;2022-08-19T04:20:26;100296.03;;;20.50;95.54
72120;BME280;59993;53.052;18.576;2022-08-19T04:22:52;100298.72;;;20.50;95.88
72120;BME280;59993;53.052;18.576;2022-08-19T04:25:17;100304.38;;;20.55;95.34
72120;BME280;59993;53.052;18.576;2022-08-19T04:27:43;100301.50;;;20.57;94.92
72120;BME280;59993;53.052;18.576;2022-08-19T04:30:12;100302.66;;;20.63;95.02
72120;BME280;59993;53.052;18.576;2022-08-19T04:32:38;100302.47;;;20.64;94.96
72120;BME280;59993;53.052;18.576;2022-08-19T04:35:04;100297.91;;;20.65;94.82
72120;BME280;59993;53.052;18.576;2022-08-19T04:37:30;100292.19;;;20.68;95.01
72120;BME280;59993;53.052;18.576;2022-08-19T04:39:58;100289.44;;;20.76;94.36
72120;BME280;59993;53.052;18.576;2022-08-19T04:42:42;100300.31;;;20.83;94.28
72120;BME280;59993;53.052;18.576;2022-08-19T04:45:12;100294.91;;;20.83;94.05
72120;BME280;59993;53.052;18.576;2022-08-19T04:47:39;100311.22;;;20.89;93.76
72120;BME280;59993;53.052;18.576;2022-08-19T04:50:06;100315.00;;;20.95;93.22
72120;BME280;59993;53.052;18.576;2022-08-19T04:52:32;100317.28;;;21.06;92.89
72120;BME280;59993;53.052;18.576;2022-08-19T04:54:58;100324.91;;;21.18;92.25
72120;BME280;59993;53.052;18.576;2022-08-19T04:57:23;100331.59;;;21.22;91.97
72120;BME280;59993;53.052;18.576;2022-08-19T04:59:53;100328.06;;;21.36;91.62
72120;BME280;59993;53.052;18.576;2022-08-19T05:02:19;100330.69;;;21.44;91.10
72120;BME280;59993;53.052;18.576;2022-08-19T05:04:45;100327.53;;;21.56;90.46
72120;BME280;59993;53.052;18.576;2022-08-19T05:07:10;100323.06;;;21.63;90.08
72120;BME280;59993;53.052;18.576;2022-08-19T05:09:37;100319.25;;;21.72;89.29
72120;BME280;59993;53.052;18.576;2022-08-19T05:12:02;100319.53;;;21.77;89.26
72120;BME280;59993;53.052;18.576;2022-08-19T05:14:28;100308.19;;;21.82;88.77
72120;BME280;59993;53.052;18.576;2022-08-19T05:16:54;100307.06;;;21.76;89.39
72120;BME280;59993;53.052;18.576;2022-08-19T05:19:19;100314.59;;;21.81;88.71
72120;BME280;59993;53.052;18.576;2022-08-19T05:22:03;100320.06;;;21.88;89.23
72120;BME280;59993;53.052;18.576;2022-08-19T05:24:47;100328.50;;;21.99;88.64
72120;BME280;59993;53.052;18.576;2022-08-19T05:27:12;100326.22;;;22.18;87.55
72120;BME280;59993;53.052;18.576;2022-08-19T05:29:38;100319.25;;;22.45;86.50
72120;BME280;59993;53.052;18.576;2022-08-19T05:32:05;100310.56;;;22.71;84.79
72120;BME280;59993;53.052;18.576;2022-08-19T05:34:33;100305.34;;;22.48;86.25
72120;BME280;59993;53.052;18.576;2022-08-19T05:37:02;100297.84;;;22.44;86.58
72120;BME280;59993;53.052;18.576;2022-08-19T05:39:30;100292.13;;;22.53;85.50
72120;BME280;59993;53.052;18.576;2022-08-19T05:42:00;100300.09;;;22.62;85.53
72120;BME280;59993;53.052;18.576;2022-08-19T05:44:31;100302.66;;;22.48;86.54
72120;BME280;59993;53.052;18.576;2022-08-19T05:46:58;100302.66;;;22.48;86.25
72120;BME280;59993;53.052;18.576;2022-08-19T05:49:25;100312.97;;;22.60;85.63
72120;BME280;59993;53.052;18.576;2022-08-19T05:51:52;100317.72;;;22.79;85.30
72120;BME280;59993;53.052;18.576;2022-08-19T05:54:20;100317.53;;;23.09;83.45
72120;BME280;59993;53.052;18.576;2022-08-19T05:56:45;100322.47;;;23.05;84.02
72120;BME280;59993;53.052;18.576;2022-08-19T05:59:14;100328.84;;;23.19;82.99
72120;BME280;59993;53.052;18.576;2022-08-19T06:01:43;100329.94;;;23.32;81.66
72120;BME280;59993;53.052;18.576;2022-08-19T06:04:09;100331.91;;;23.45;81.65
72120;BME280;59993;53.052;18.576;2022-08-19T06:06:36;100331.53;;;23.54;81.28
72120;BME280;59993;53.052;18.576;2022-08-19T06:09:05;100328.69;;;23.63;80.71
72120;BME280;59993;53.052;18.576;2022-08-19T06:11:43;100321.75;;;23.88;78.67
72120;BME280;59993;53.052;18.576;2022-08-19T06:14:11;100315.53;;;24.08;79.15
72120;BME280;59993;53.052;18.576;2022-08-19T06:16:39;100313.72;;;24.22;78.57
72120;BME280;59993;53.052;18.576;2022-08-19T06:19:12;100318.94;;;24.23;77.87
72120;BME280;59993;53.052;18.576;2022-08-19T06:21:40;100335.59;;;24.34;76.88
72120;BME280;59993;53.052;18.576;2022-08-19T06:24:07;100331.06;;;24.54;76.40
72120;BME280;59993;53.052;18.576;2022-08-19T06:26:38;100332.97;;;24.67;75.67
72120;BME280;59993;53.052;18.576;2022-08-19T06:29:05;100322.34;;;24.79;75.21
72120;BME280;59993;53.052;18.576;2022-08-19T06:31:33;100325.25;;;25.04;73.95
72120;BME280;59993;53.052;18.576;2022-08-19T06:34:05;100326.94;;;24.98;74.67
72120;BME280;59993;53.052;18.576;2022-08-19T06:36:37;100335.25;;;25.30;74.20
72120;BME280;59993;53.052;18.576;2022-08-19T06:39:09;100332.72;;;25.35;72.95
72120;BME280;59993;53.052;18.576;2022-08-19T06:41:37;100325.66;;;25.34;72.83
72120;BME280;59993;53.052;18.576;2022-08-19T06:44:03;100317.19;;;25.63;71.89
72120;BME280;59993;53.052;18.576;2022-08-19T06:46:29;100317.72;;;25.33;72.12
72120;BME280;59993;53.052;18.576;2022-08-19T06:48:56;100326.41;;;25.62;72.04
72120;BME280;59993;53.052;18.576;2022-08-19T06:51:22;100316.00;;;25.52;72.14
72120;BME280;59993;53.052;18.576;2022-08-19T06:53:51;100312.97;;;25.80;70.25
72120;BME280;59993;53.052;18.576;2022-08-19T06:56:23;100317.44;;;26.13;70.62
72120;BME280;59993;53.052;18.576;2022-08-19T06:58:50;100310.63;;;26.29;69.75
72120;BME280;59993;53.052;18.576;2022-08-19T07:01:19;100308.72;;;26.36;69.20
72120;BME280;59993;53.052;18.576;2022-08-19T07:03:45;100313.13;;;26.37;69.64
72120;BME280;59993;53.052;18.576;2022-08-19T07:06:14;100306.16;;;26.73;66.25
72120;BME280;59993;53.052;18.576;2022-08-19T07:08:43;100302.53;;;26.54;66.38
72120;BME280;59993;53.052;18.576;2022-08-19T07:11:11;100298.28;;;26.33;68.00
72120;BME280;59993;53.052;18.576;2022-08-19T07:13:39;100294.91;;;26.38;66.94
72120;BME280;59993;53.052;18.576;2022-08-19T07:16:08;100291.25;;;26.51;66.63
72120;BME280;59993;53.052;18.576;2022-08-19T07:18:35;100290.34;;;26.57;65.96
72120;BME280;59993;53.052;18.576;2022-08-19T07:21:16;100293.81;;;26.46;66.58
72120;BME280;59993;53.052;18.576;2022-08-19T07:23:43;100289.84;;;26.73;65.80
72120;BME280;59993;53.052;18.576;2022-08-19T07:26:15;100288.50;;;26.83;64.32
72120;BME280;59993;53.052;18.576;2022-08-19T07:28:41;100297.16;;;26.98;64.02
72120;BME280;59993;53.052;18.576;2022-08-19T07:31:11;100293.00;;;26.70;64.56
72120;BME280;59993;53.052;18.576;2022-08-19T07:33:37;100291.44;;;26.81;65.56
72120;BME280;59993;53.052;18.576;2022-08-19T07:36:04;100290.06;;;27.16;64.87
72120;BME280;59993;53.052;18.576;2022-08-19T07:38:33;100300.59;;;27.30;64.71
72120;BME280;59993;53.052;18.576;2022-08-19T07:40:59;100307.09;;;27.29;64.81
72120;BME280;59993;53.052;18.576;2022-08-19T07:43:26;100301.31;;;27.44;63.24
72120;BME280;59993;53.052;18.576;2022-08-19T07:45:53;100307.97;;;27.48;61.99
72120;BME280;59993;53.052;18.576;2022-08-19T07:48:23;100298.59;;;27.44;61.97
72120;BME280;59993;53.052;18.576;2022-08-19T07:50:53;100291.22;;;27.26;63.12
72120;BME280;59993;53.052;18.576;2022-08-19T07:53:21;100289.75;;;27.05;64.52
72120;BME280;59993;53.052;18.576;2022-08-19T07:55:46;100296.31;;;27.41;62.83
72120;BME280;59993;53.052;18.576;2022-08-19T07:58:14;100301.03;;;27.27;63.80
72120;BME280;59993;53.052;18.576;2022-08-19T08:00:42;100297.38;;;27.59;62.34
72120;BME280;59993;53.052;18.576;2022-08-19T08:03:08;100302.81;;;27.59;61.74
72120;BME280;59993;53.052;18.576;2022-08-19T08:05:34;100298.94;;;27.85;60.42
72120;BME280;59993;53.052;18.576;2022-08-19T08:08:18;100304.28;;;27.92;60.55
72120;BME280;59993;53.052;18.576;2022-08-19T08:11:07;100305.28;;;27.97;60.51
72120;BME280;59993;53.052;18.576;2022-08-19T08:13:35;100308.06;;;28.09;59.63
72120;BME280;59993;53.052;18.576;2022-08-19T08:16:02;100301.72;;;28.39;58.98
72120;BME280;59993;53.052;18.576;2022-08-19T08:18:28;100290.97;;;28.02;59.87
72120;BME280;59993;53.052;18.576;2022-08-19T08:20:55;100301.56;;;28.22;58.66
72120;BME280;59993;53.052;18.576;2022-08-19T08:23:21;100295.81;;;28.30;57.89
72120;BME280;59993;53.052;18.576;2022-08-19T08:25:59;100289.28;;;28.01;58.38
72120;BME280;59993;53.052;18.576;2022-08-19T08:28:27;100278.06;;;28.51;57.71
72120;BME280;59993;53.052;18.576;2022-08-19T08:30:52;100279.94;;;28.51;57.93
72120;BME280;59993;53.052;18.576;2022-08-19T08:33:20;100282.78;;;28.44;57.94
72120;BME280;59993;53.052;18.576;2022-08-19T08:35:46;100277.75;;;28.60;57.11
72120;BME280;59993;53.052;18.576;2022-08-19T08:38:12;100281.22;;;28.48;57.00
72120;BME280;59993;53.052;18.576;2022-08-19T08:43:18;100286.22;;;28.40;57.72
72120;BME280;59993;53.052;18.576;2022-08-19T08:46:05;100280.31;;;28.43;57.98
72120;BME280;59993;53.052;18.576;2022-08-19T08:48:56;100269.09;;;28.86;57.29
72120;BME280;59993;53.052;18.576;2022-08-19T08:51:36;100276.69;;;28.84;55.89
72120;BME280;59993;53.052;18.576;2022-08-19T08:54:06;100281.53;;;29.18;56.12
72120;BME280;59993;53.052;18.576;2022-08-19T08:56:33;100274.19;;;29.06;54.60
72120;BME280;59993;53.052;18.576;2022-08-19T08:59:10;100275.47;;;29.39;54.01
72120;BME280;59993;53.052;18.576;2022-08-19T09:01:37;100284.53;;;28.93;55.35
72120;BME280;59993;53.052;18.576;2022-08-19T09:04:07;100271.69;;;28.81;55.31
72120;BME280;59993;53.052;18.576;2022-08-19T09:09:43;100263.50;;;29.29;54.68
72120;BME280;59993;53.052;18.576;2022-08-19T09:15:00;100269.16;;;29.51;51.71
72120;BME280;59993;53.052;18.576;2022-08-19T09:17:29;100274.53;;;28.98;53.44
72120;BME280;59993;53.052;18.576;2022-08-19T09:20:08;100270.75;;;28.87;53.99
72120;BME280;59993;53.052;18.576;2022-08-19T09:22:41;100271.09;;;29.38;52.02
72120;BME280;59993;53.052;18.576;2022-08-19T09:25:13;100263.19;;;29.54;52.67
72120;BME280;59993;53.052;18.576;2022-08-19T09:27:41;100259.53;;;29.48;51.95
72120;BME280;59993;53.052;18.576;2022-08-19T09:30:08;100252.00;;;29.27;53.55
72120;BME280;59993;53.052;18.576;2022-08-19T09:32:35;100246.06;;;29.30;52.31
72120;BME280;59993;53.052;18.576;2022-08-19T09:35:01;100247.25;;;28.98;54.41
72120;BME280;59993;53.052;18.576;2022-08-19T09:37:27;100260.44;;;29.66;51.36
72120;BME280;59993;53.052;18.576;2022-08-19T09:39:53;100260.31;;;29.60;51.41
72120;BME280;59993;53.052;18.576;2022-08-19T09:42:19;100267.47;;;29.50;52.24
72120;BME280;59993;53.052;18.576;2022-08-19T09:44:45;100260.44;;;29.66;52.03
72120;BME280;59993;53.052;18.576;2022-08-19T09:47:13;100250.69;;;29.17;53.55
72120;BME280;59993;53.052;18.576;2022-08-19T09:49:39;100256.00;;;29.36;53.79
72120;BME280;59993;53.052;18.576;2022-08-19T09:52:09;100253.69;;;29.56;54.99
72120;BME280;59993;53.052;18.576;2022-08-19T09:54:36;100246.63;;;30.01;52.64
72120;BME280;59993;53.052;18.576;2022-08-19T09:57:02;100247.78;;;30.51;51.80
72120;BME280;59993;53.052;18.576;2022-08-19T09:59:28;100246.66;;;30.18;50.88
72120;BME280;59993;53.052;18.576;2022-08-19T10:01:54;100255.63;;;29.73;51.76
72120;BME280;59993;53.052;18.576;2022-08-19T10:04:20;100247.28;;;29.63;51.55
72120;BME280;59993;53.052;18.576;2022-08-19T10:06:47;100243.44;;;29.64;52.41
72120;BME280;59993;53.052;18.576;2022-08-19T10:09:16;100252.78;;;30.08;51.69
72120;BME280;59993;53.052;18.576;2022-08-19T10:11:44;100252.63;;;30.15;52.56
72120;BME280;59993;53.052;18.576;2022-08-19T10:14:15;100249.00;;;30.26;53.19
72120;BME280;59993;53.052;18.576;2022-08-19T10:16:42;100253.38;;;30.27;53.02
72120;BME280;59993;53.052;18.576;2022-08-19T10:19:08;100260.09;;;30.37;51.20
72120;BME280;59993;53.052;18.576;2022-08-19T10:21:34;100242.53;;;30.16;52.25
72120;BME280;59993;53.052;18.576;2022-08-19T10:24:02;100249.53;;;29.94;54.01
72120;BME280;59993;53.052;18.576;2022-08-19T10:26:38;100239.66;;;29.93;53.13
72120;BME280;59993;53.052;18.576;2022-08-19T10:29:07;100238.38;;;30.30;52.73
72120;BME280;59993;53.052;18.576;2022-08-19T10:31:33;100226.97;;;30.50;51.99
72120;BME280;59993;53.052;18.576;2022-08-19T10:34:00;100222.31;;;30.68;51.04
72120;BME280;59993;53.052;18.576;2022-08-19T10:36:32;100222.88;;;30.70;51.15
72120;BME280;59993;53.052;18.576;2022-08-19T10:39:04;100215.72;;;30.46;51.47
72120;BME280;59993;53.052;18.576;2022-08-19T10:41:34;100232.66;;;30.32;52.45
72120;BME280;59993;53.052;18.576;2022-08-19T10:44:04;100238.06;;;30.26;51.28
72120;BME280;59993;53.052;18.576;2022-08-19T10:46:30;100234.34;;;30.16;53.32
72120;BME280;59993;53.052;18.576;2022-08-19T10:48:59;100240.50;;;30.40;51.46
72120;BME280;59993;53.052;18.576;2022-08-19T10:51:25;100232.16;;;30.35;51.96
72120;BME280;59993;53.052;18.576;2022-08-19T10:54:09;100223.16;;;30.34;52.46
72120;BME280;59993;53.052;18.576;2022-08-19T10:56:35;100221.78;;;30.03;54.01
72120;BME280;59993;53.052;18.576;2022-08-19T10:59:21;100218.50;;;30.01;53.72
72120;BME280;59993;53.052;18.576;2022-08-19T11:01:48;100208.31;;;30.13;51.61
72120;BME280;59993;53.052;18.576;2022-08-19T11:04:15;100208.88;;;29.98;52.43
72120;BME280;59993;53.052;18.576;2022-08-19T11:06:44;100198.69;;;30.27;52.15
72120;BME280;59993;53.052;18.576;2022-08-19T11:09:12;100200.63;;;30.44;51.41
72120;BME280;59993;53.052;18.576;2022-08-19T11:11:38;100199.97;;;30.54;51.23
72120;BME280;59993;53.052;18.576;2022-08-19T11:14:09;100202.91;;;30.69;50.06
72120;BME280;59993;53.052;18.576;2022-08-19T11:16:35;100204.91;;;30.74;49.79
72120;BME280;59993;53.052;18.576;2022-08-19T11:19:01;100196.75;;;30.79;50.20
72120;BME280;59993;53.052;18.576;2022-08-19T11:21:33;100197.59;;;30.79;50.10
72120;BME280;59993;53.052;18.576;2022-08-19T11:24:08;100199.94;;;30.71;50.72
72120;BME280;59993;53.052;18.576;2022-08-19T11:26:36;100186.75;;;30.90;50.49
72120;BME280;59993;53.052;18.576;2022-08-19T11:29:03;100185.50;;;30.97;51.38
72120;BME280;59993;53.052;18.576;2022-08-19T11:31:31;100191.47;;;30.94;49.58
72120;BME280;59993;53.052;18.576;2022-08-19T11:34:02;100178.00;;;30.88;50.41
72120;BME280;59993;53.052;18.576;2022-08-19T11:36:29;100175.44;;;30.98;51.14
72120;BME280;59993;53.052;18.576;2022-08-19T11:38:55;100173.34;;;30.88;51.20
72120;BME280;59993;53.052;18.576;2022-08-19T11:41:22;100168.75;;;30.94;50.26
72120;BME280;59993;53.052;18.576;2022-08-19T11:43:49;100153.31;;;31.05;50.16
72120;BME280;59993;53.052;18.576;2022-08-19T11:46:16;100135.81;;;31.06;49.90
72120;BME280;59993;53.052;18.576;2022-08-19T11:48:42;100144.22;;;31.21;52.35
72120;BME280;59993;53.052;18.576;2022-08-19T11:51:12;100150.41;;;31.11;50.50
72120;BME280;59993;53.052;18.576;2022-08-19T11:53:38;100145.25;;;31.15;49.41
72120;BME280;59993;53.052;18.576;2022-08-19T11:56:05;100140.53;;;31.32;49.33
72120;BME280;59993;53.052;18.576;2022-08-19T11:58:31;100150.97;;;31.35;49.46
72120;BME280;59993;53.052;18.576;2022-08-19T12:00:57;100152.88;;;31.13;49.76
72120;BME280;59993;53.052;18.576;2022-08-19T12:03:23;100155.28;;;31.31;50.18
72120;BME280;59993;53.052;18.576;2022-08-19T12:05:49;100147.63;;;31.33;49.62
72120;BME280;59993;53.052;18.576;2022-08-19T12:08:15;100160.41;;;31.00;50.74
72120;BME280;59993;53.052;18.576;2022-08-19T12:10:43;100158.66;;;31.16;49.64
72120;BME280;59993;53.052;18.576;2022-08-19T12:13:11;100165.94;;;31.06;49.79
72120;BME280;59993;53.052;18.576;2022-08-19T12:15:40;100153.97;;;31.12;51.04
72120;BME280;59993;53.052;18.576;2022-08-19T12:18:07;100162.69;;;31.09;49.24
72120;BME280;59993;53.052;18.576;2022-08-19T12:20:38;100164.66;;;31.13;49.35
72120;BME280;59993;53.052;18.576;2022-08-19T12:23:06;100159.94;;;31.09;50.01
72120;BME280;59993;53.052;18.576;2022-08-19T12:25:32;100160.13;;;31.24;49.81
72120;BME280;59993;53.052;18.576;2022-08-19T12:27:58;100163.59;;;31.14;49.80
72120;BME280;59993;53.052;18.576;2022-08-19T12:30:24;100160.25;;;31.34;48.80
72120;BME280;59993;53.052;18.576;2022-08-19T12:32:50;100160.00;;;31.14;49.48
72120;BME280;59993;53.052;18.576;2022-08-19T12:35:17;100157.59;;;31.17;50.29
72120;BME280;59993;53.052;18.576;2022-08-19T12:37:45;100156.59;;;31.51;50.46
72120;BME280;59993;53.052;18.576;2022-08-19T12:40:11;100163.59;;;31.64;49.89
72120;BME280;59993;53.052;18.576;2022-08-19T12:42:38;100162.13;;;31.56;48.17
72120;BME280;59993;53.052;18.576;2022-08-19T12:45:09;100154.00;;;31.61;47.33
72120;BME280;59993;53.052;18.576;2022-08-19T12:47:35;100160.91;;;31.69;47.53
72120;BME280;59993;53.052;18.576;2022-08-19T12:50:00;100157.31;;;31.68;47.46
72120;BME280;59993;53.052;18.576;2022-08-19T12:52:26;100156.66;;;31.56;48.11
72120;BME280;59993;53.052;18.576;2022-08-19T12:54:53;100156.41;;;31.90;48.36